Time;durP1;ratioP1;P1;durP2;ratioP2;P2;SDS_P1;SDS_P2;PMS_P1;PMS_P2;Temp;Humidity;BMP_temperature;BMP_pressure;BME280_temperature;BME280_humidity;BME280_pressure;Samples;Min_cycle;Max_cycle;Signal;HPM_P1;HPM_P2
2022/05/10 00:02:11;;;;;;;2.38;1.50;;;24.50;46.80;;;;;;5062544;28;20047;-43
2022/05/10 00:04:37;;;;;;;3.08;1.80;;;24.50;46.80;;;;;;5061253;28;20028;-43
2022/05/10 00:07:03;;;;;;;2.55;1.40;;;24.50;46.70;;;;;;5064782;28;20082;-44
2022/05/10 00:09:29;;;;;;;2.05;1.20;;;24.50;46.70;;;;;;5064100;28;20077;-44
2022/05/10 00:11:57;;;;;;;4.13;1.80;;;24.50;46.70;;;;;;5064377;28;20661;-43
2022/05/10 00:14:26;;;;;;;2.53;1.50;;;24.50;46.80;;;;;;5063951;28;20028;-43
2022/05/10 00:16:52;;;;;;;2.58;1.33;;;24.50;46.70;;;;;;5062143;28;20096;-43
2022/05/10 00:19:19;;;;;;;2.78;1.60;;;24.50;46.70;;;;;;5061970;28;20112;-44
2022/05/10 00:21:47;;;;;;;2.10;1.20;;;24.50;46.70;;;;;;5063944;28;20051;-43
2022/05/10 00:24:13;;;;;;;2.78;1.52;;;24.50;46.80;;;;;;5062765;28;20477;-43
2022/05/10 00:26:39;;;;;;;2.13;1.13;;;24.50;46.70;;;;;;5063947;28;20046;-44
2022/05/10 00:29:05;;;;;;;2.38;1.50;;;24.40;46.50;;;;;;5063843;28;20048;-44
2022/05/10 00:31:31;;;;;;;2.40;1.40;;;24.50;46.70;;;;;;5063484;28;20496;-43
2022/05/10 00:34:00;;;;;;;1.98;1.17;;;24.40;46.60;;;;;;5062999;28;20072;-43
2022/05/10 00:36:26;;;;;;;2.47;1.20;;;24.40;46.60;;;;;;5064161;28;20388;-43
2022/05/10 00:38:52;;;;;;;3.70;1.25;;;24.40;46.60;;;;;;5063679;28;20025;-46
2022/05/10 00:41:58;;;;;;;2.15;1.20;;;24.40;46.50;;;;;;5064020;28;20728;-43
2022/05/10 00:44:55;;;;;;;3.80;1.58;;;24.40;46.60;;;;;;5063706;28;20662;-43
2022/05/10 00:47:43;;;;;;;3.00;1.70;;;24.40;46.60;;;;;;5061703;28;20062;-43
2022/05/10 00:50:24;;;;;;;2.38;1.35;;;24.40;46.60;;;;;;5059904;28;20665;-43
2022/05/10 00:52:59;;;;;;;2.33;1.30;;;24.40;46.60;;;;;;5061968;28;20034;-43
2022/05/10 00:55:44;;;;;;;2.58;1.45;;;24.30;46.60;;;;;;5062812;28;20028;-43
2022/05/10 00:58:26;;;;;;;2.42;1.40;;;24.40;46.50;;;;;;5063627;28;20066;-44
2022/05/10 01:00:55;;;;;;;2.92;1.50;;;24.30;46.50;;;;;;5063365;28;20055;-42
2022/05/10 01:03:30;;;;;;;2.42;1.40;;;24.40;46.50;;;;;;5062362;28;20033;-43
2022/05/10 01:06:11;;;;;;;2.28;1.27;;;24.40;46.50;;;;;;5059489;28;20040;-43
2022/05/10 01:09:02;;;;;;;2.92;1.50;;;24.30;46.60;;;;;;5063489;28;20571;-43
2022/05/10 01:11:33;;;;;;;2.03;1.20;;;24.30;46.60;;;;;;5061990;28;20090;-43
2022/05/10 01:14:12;;;;;;;1.83;1.08;;;24.30;46.50;;;;;;5063592;28;20024;-43
2022/05/10 01:16:38;;;;;;;2.75;1.35;;;24.30;46.50;;;;;;5061124;28;20103;-43
2022/05/10 01:19:04;;;;;;;2.17;1.33;;;24.30;46.40;;;;;;5061574;28;20171;-43
2022/05/10 01:21:44;;;;;;;2.90;1.58;;;24.30;46.40;;;;;;5063249;28;20029;-43
2022/05/10 01:24:13;;;;;;;2.53;1.40;;;24.30;46.50;;;;;;5062964;28;20032;-43
2022/05/10 01:27:09;;;;;;;2.50;1.30;;;24.30;46.50;;;;;;5063433;28;20017;-43
2022/05/10 01:30:07;;;;;;;2.40;1.15;;;24.30;46.60;;;;;;5062537;28;20067;-43
2022/05/10 01:35:45;;;;;;;2.95;1.70;;;24.30;46.50;;;;;;5065534;28;20033;-43
2022/05/10 01:38:39;;;;;;;2.28;1.10;;;24.30;46.50;;;;;;5067019;28;20055;-43
2022/05/10 01:41:36;;;;;;;1.92;1.00;;;24.30;46.40;;;;;;5066625;28;20020;-43
2022/05/10 01:44:15;;;;;;;2.13;1.33;;;24.20;46.40;;;;;;5066177;28;20020;-43
2022/05/10 01:46:43;;;;;;;2.90;1.42;;;24.20;46.40;;;;;;5066587;28;20031;-44
2022/05/10 01:49:16;;;;;;;2.78;1.35;;;24.30;46.40;;;;;;5065192;28;20027;-44
2022/05/10 01:51:52;;;;;;;1.73;1.10;;;24.20;46.40;;;;;;5066985;28;20055;-43
2022/05/10 01:54:59;;;;;;;2.55;1.48;;;24.30;46.40;;;;;;5065572;28;20058;-44
2022/05/10 01:57:27;;;;;;;2.80;1.50;;;24.20;46.40;;;;;;5066637;28;20041;-44
2022/05/10 01:59:59;;;;;;;2.13;1.20;;;24.20;46.30;;;;;;5065216;28;20687;-43
2022/05/10 02:02:27;;;;;;;2.25;1.20;;;24.20;46.40;;;;;;5065347;28;20639;-44
2022/05/10 02:04:59;;;;;;;2.50;1.25;;;24.20;46.30;;;;;;5066726;28;20077;-44
2022/05/10 02:07:26;;;;;;;2.88;1.40;;;24.20;46.30;;;;;;5064307;28;20021;-45
2022/05/10 02:10:18;;;;;;;2.80;1.42;;;24.20;46.30;;;;;;5065993;28;20029;-44
2022/05/10 02:12:59;;;;;;;2.55;1.20;;;24.20;46.40;;;;;;5066702;28;20043;-43
2022/05/10 02:15:56;;;;;;;2.55;1.50;;;24.20;46.40;;;;;;5066092;28;20056;-44
2022/05/10 02:18:33;;;;;;;1.90;1.02;;;24.20;46.40;;;;;;5063807;28;20043;-43
2022/05/10 02:21:08;;;;;;;2.22;1.52;;;24.20;46.40;;;;;;5065657;28;20063;-43
2022/05/10 02:24:00;;;;;;;2.05;1.30;;;24.20;46.30;;;;;;5066194;28;20024;-44
2022/05/10 02:26:45;;;;;;;2.43;1.30;;;24.20;46.30;;;;;;5065060;28;20127;-44
2022/05/10 02:29:33;;;;;;;2.85;1.38;;;24.20;46.30;;;;;;5066389;28;20426;-44
2022/05/10 02:34:53;;;;;;;2.00;1.20;;;24.20;46.30;;;;;;5065338;28;20027;-43
2022/05/10 02:37:18;;;;;;;2.53;1.40;;;24.20;46.20;;;;;;5066024;28;20028;-43
2022/05/10 02:39:44;;;;;;;2.50;1.38;;;24.20;46.20;;;;;;5065893;28;20021;-43
2022/05/10 02:42:14;;;;;;;2.17;1.35;;;24.20;46.20;;;;;;5065478;28;20024;-43
2022/05/10 02:44:41;;;;;;;2.55;1.50;;;24.20;46.20;;;;;;5066072;28;20024;-44
2022/05/10 02:47:08;;;;;;;2.13;1.30;;;24.20;46.20;;;;;;5066167;28;20020;-43
2022/05/10 02:49:36;;;;;;;2.17;1.20;;;24.20;46.10;;;;;;5064698;28;20035;-43
2022/05/10 02:52:03;;;;;;;2.05;1.17;;;24.20;46.80;;;;;;5064528;28;20024;-43
2022/05/10 02:54:29;;;;;;;2.08;1.40;;;24.20;46.10;;;;;;5065730;28;20670;-44
2022/05/10 02:56:58;;;;;;;2.38;1.30;;;24.20;46.20;;;;;;5065789;28;20534;-43
2022/05/10 02:59:33;;;;;;;2.15;1.20;;;24.20;46.20;;;;;;5062622;28;20035;-44
2022/05/10 03:02:04;;;;;;;2.67;1.55;;;24.20;46.20;;;;;;5063613;28;20047;-43
2022/05/10 03:04:35;;;;;;;2.17;1.27;;;24.20;46.20;;;;;;5065373;28;20025;-44
2022/05/10 03:07:02;;;;;;;1.77;1.13;;;24.10;46.20;;;;;;5064461;28;20034;-42
2022/05/10 03:09:28;;;;;;;2.17;1.17;;;24.20;46.20;;;;;;5064764;28;20322;-43
2022/05/10 03:11:54;;;;;;;2.35;1.35;;;24.20;46.20;;;;;;5064872;28;20071;-43
2022/05/10 03:14:19;;;;;;;2.75;1.20;;;24.20;46.20;;;;;;5065427;28;20040;-43
2022/05/10 03:16:45;;;;;;;2.28;1.45;;;24.10;46.20;;;;;;5065987;28;20043;-43
2022/05/10 03:19:11;;;;;;;2.72;1.40;;;24.10;46.10;;;;;;5063782;28;20044;-44
2022/05/10 03:21:38;;;;;;;1.90;1.10;;;24.10;46.10;;;;;;5065381;28;20024;-43
2022/05/10 03:24:04;;;;;;;1.92;1.20;;;24.10;46.10;;;;;;5065363;28;20031;-44
2022/05/10 03:26:31;;;;;;;2.45;1.33;;;24.10;46.10;;;;;;5065510;28;20074;-43
2022/05/10 03:28:57;;;;;;;2.08;1.25;;;24.10;46.10;;;;;;5065063;28;20373;-43
2022/05/10 03:31:25;;;;;;;2.30;1.17;;;24.10;46.10;;;;;;5064822;28;20107;-44
2022/05/10 03:36:38;;;;;;;2.40;1.45;;;24.10;46.00;;;;;;5064512;28;20574;-43
2022/05/10 03:39:04;;;;;;;2.17;1.35;;;24.10;46.00;;;;;;5063420;28;20052;-43
2022/05/10 03:41:30;;;;;;;2.15;1.35;;;24.10;46.00;;;;;;5064977;28;20024;-44
2022/05/10 03:43:56;;;;;;;2.75;1.40;;;24.10;46.10;;;;;;5065170;28;20442;-43
2022/05/10 03:46:22;;;;;;;2.22;1.20;;;24.10;46.00;;;;;;5065044;28;20484;-43
2022/05/10 03:48:49;;;;;;;3.28;1.60;;;24.10;46.10;;;;;;5061799;28;20031;-43
2022/05/10 03:51:16;;;;;;;2.88;1.60;;;24.10;46.10;;;;;;5064256;28;20067;-43
2022/05/10 03:53:41;;;;;;;2.03;1.20;;;24.10;46.00;;;;;;5063923;28;20017;-43
2022/05/10 03:56:07;;;;;;;2.60;1.30;;;24.10;46.00;;;;;;5064811;28;20036;-43
2022/05/10 03:58:33;;;;;;;3.15;1.60;;;24.10;46.00;;;;;;5064874;28;20024;-43
2022/05/10 04:00:59;;;;;;;2.70;1.40;;;24.10;46.00;;;;;;5061313;28;20599;-43
2022/05/10 04:03:25;;;;;;;3.45;1.20;;;24.10;46.00;;;;;;5063681;28;20035;-43
2022/05/10 04:05:50;;;;;;;2.85;1.48;;;24.00;45.90;;;;;;5064050;28;20025;-43
2022/05/10 04:08:16;;;;;;;2.17;1.23;;;24.10;45.90;;;;;;5062954;28;20040;-43
2022/05/10 04:10:42;;;;;;;2.20;1.40;;;24.10;46.00;;;;;;5061161;28;21244;-44
2022/05/10 04:13:10;;;;;;;2.78;1.50;;;24.10;46.00;;;;;;5063886;28;20032;-44
2022/05/10 04:15:36;;;;;;;2.08;1.13;;;24.10;45.90;;;;;;5062914;28;20031;-43
2022/05/10 04:18:03;;;;;;;2.50;1.27;;;24.10;46.00;;;;;;5061837;28;20103;-43
2022/05/10 04:20:29;;;;;;;1.85;1.05;;;24.10;45.90;;;;;;5064025;28;20082;-44
2022/05/10 04:22:55;;;;;;;2.30;1.10;;;24.10;46.00;;;;;;5063874;28;20592;-44
2022/05/10 04:25:25;;;;;;;2.15;1.20;;;24.10;45.90;;;;;;5063623;28;20028;-43
2022/05/10 04:27:51;;;;;;;2.40;1.40;;;24.10;45.90;;;;;;5063819;28;20024;-43
2022/05/10 04:30:18;;;;;;;2.90;1.60;;;24.00;45.90;;;;;;5063969;28;20039;-43
2022/05/10 04:32:44;;;;;;;2.38;1.40;;;24.00;45.80;;;;;;5063663;28;20023;-43
2022/05/10 04:35:10;;;;;;;2.40;1.40;;;24.10;46.00;;;;;;5063628;28;20017;-43
2022/05/10 04:37:36;;;;;;;2.15;1.20;;;24.00;45.80;;;;;;5063801;28;20012;-43
2022/05/10 04:42:49;;;;;;;3.53;1.75;;;24.00;45.90;;;;;;5063654;28;20093;-43
2022/05/10 04:45:15;;;;;;;3.85;1.50;;;24.00;45.90;;;;;;5063821;28;20025;-43
2022/05/10 04:47:42;;;;;;;2.15;1.20;;;24.00;45.80;;;;;;5063612;28;20059;-44
2022/05/10 04:50:09;;;;;;;2.13;1.27;;;24.00;45.80;;;;;;5062337;28;20603;-43
2022/05/10 04:52:35;;;;;;;2.67;1.30;;;24.00;45.90;;;;;;5063524;28;20199;-43
2022/05/10 04:55:01;;;;;;;2.13;1.20;;;24.00;45.80;;;;;;5063153;28;20020;-43
2022/05/10 04:57:27;;;;;;;2.38;1.20;;;24.00;45.80;;;;;;5061920;28;20671;-44
2022/05/10 04:59:53;;;;;;;2.72;1.40;;;24.00;45.80;;;;;;5062775;28;20048;-44
2022/05/10 05:02:19;;;;;;;2.20;1.23;;;24.00;45.90;;;;;;5061692;28;20442;-43
2022/05/10 05:04:44;;;;;;;1.70;1.08;;;24.00;45.90;;;;;;5061634;28;20046;-43
2022/05/10 05:07:10;;;;;;;2.65;1.40;;;24.00;45.90;;;;;;5061518;28;20056;-43
2022/05/10 05:09:36;;;;;;;2.95;1.23;;;24.00;45.80;;;;;;5060856;28;20029;-44
2022/05/10 05:12:04;;;;;;;2.35;1.42;;;24.00;45.90;;;;;;5061640;28;20058;-43
2022/05/10 05:14:31;;;;;;;2.40;1.30;;;24.00;45.90;;;;;;5062145;28;20079;-43
2022/05/10 05:16:58;;;;;;;2.55;1.27;;;24.00;46.10;;;;;;5062230;28;21058;-43
2022/05/10 05:19:24;;;;;;;2.45;1.30;;;24.00;46.30;;;;;;5061449;28;20025;-43
2022/05/10 05:21:49;;;;;;;2.55;1.13;;;24.00;47.10;;;;;;5061337;28;20025;-43
2022/05/10 05:24:15;;;;;;;3.13;1.42;;;24.00;47.70;;;;;;5062345;28;20097;-43
2022/05/10 05:26:40;;;;;;;2.40;1.40;;;24.00;47.90;;;;;;5061859;28;20554;-44
2022/05/10 05:29:06;;;;;;;3.22;1.48;;;24.00;48.10;;;;;;5062426;28;20653;-44
2022/05/10 05:31:33;;;;;;;2.10;1.20;;;24.00;48.20;;;;;;5061779;28;20111;-43
2022/05/10 05:33:58;;;;;;;2.90;1.52;;;24.00;48.40;;;;;;5061758;28;20454;-43
2022/05/10 05:36:24;;;;;;;3.05;1.55;;;24.10;48.50;;;;;;5062414;28;20017;-43
2022/05/10 05:38:50;;;;;;;5.35;1.73;;;24.10;48.50;;;;;;5061078;28;20016;-44
2022/05/10 05:41:18;;;;;;;4.38;1.88;;;24.10;48.70;;;;;;5060267;28;20035;-44
2022/05/10 05:43:44;;;;;;;2.60;1.33;;;24.10;49.20;;;;;;5052081;28;20036;-45
2022/05/10 05:46:10;;;;;;;3.95;1.60;;;24.10;48.70;;;;;;5044359;28;20048;-44
2022/05/10 05:48:35;;;;;;;5.22;1.60;;;24.10;49.10;;;;;;5054434;28;20021;-43
2022/05/10 05:51:01;;;;;;;18.92;5.90;;;24.10;49.40;;;;;;5059250;28;20038;-45
2022/05/10 05:53:27;;;;;;;16.67;6.90;;;24.10;49.50;;;;;;5062196;28;20051;-44
2022/05/10 05:55:58;;;;;;;19.23;7.13;;;24.10;49.50;;;;;;5063203;28;20024;-43
2022/05/10 05:58:24;;;;;;;19.85;7.15;;;24.20;48.90;;;;;;5060430;28;20036;-44
2022/05/10 06:00:50;;;;;;;15.48;6.25;;;24.20;48.60;;;;;;5062954;28;20599;-45
2022/05/10 06:03:15;;;;;;;19.40;6.75;;;24.20;48.50;;;;;;5063012;28;20403;-44
2022/05/10 06:05:41;;;;;;;15.52;6.22;;;24.20;48.30;;;;;;5063617;28;20028;-44
2022/05/10 06:08:09;;;;;;;13.68;6.18;;;24.20;48.10;;;;;;5063605;28;20128;-44
2022/05/10 06:10:35;;;;;;;17.52;5.65;;;24.20;48.10;;;;;;5063049;28;20082;-44
2022/05/10 06:13:01;;;;;;;18.67;7.35;;;24.20;48.10;;;;;;5062483;28;20021;-45
2022/05/10 06:15:27;;;;;;;21.13;6.88;;;24.20;48.20;;;;;;5062632;28;20103;-44
2022/05/10 06:17:53;;;;;;;19.23;6.65;;;24.20;48.10;;;;;;5062461;28;20026;-44
2022/05/10 06:20:21;;;;;;;20.05;7.07;;;24.20;48.10;;;;;;5065874;28;20025;-44
2022/05/10 06:22:47;;;;;;;15.65;5.95;;;24.20;48.10;;;;;;5064146;28;20082;-44
2022/05/10 06:25:17;;;;;;;13.35;5.10;;;24.20;47.90;;;;;;5066174;28;20100;-44
2022/05/10 06:27:44;;;;;;;12.77;5.15;;;24.20;47.80;;;;;;5065623;28;20024;-44
2022/05/10 06:30:11;;;;;;;14.63;4.70;;;24.20;47.70;;;;;;5065985;28;20031;-44
2022/05/10 06:32:37;;;;;;;10.70;4.75;;;24.20;47.60;;;;;;5065563;28;20070;-44
2022/05/10 06:35:04;;;;;;;12.10;4.25;;;24.20;47.50;;;;;;5065980;28;20059;-44
2022/05/10 06:40:16;;;;;;;20.23;5.63;;;24.20;47.50;;;;;;5066092;28;20066;-44
2022/05/10 06:42:43;;;;;;;18.13;5.72;;;24.20;48.20;;;;;;5066593;28;20032;-44
2022/05/10 06:45:11;;;;;;;18.17;5.45;;;24.20;48.10;;;;;;5066636;28;20743;-44
2022/05/10 06:47:38;;;;;;;12.15;4.75;;;24.20;48.10;;;;;;5064464;28;20039;-45
2022/05/10 06:50:06;;;;;;;17.35;4.57;;;24.20;47.90;;;;;;5046106;28;20017;-43
2022/05/10 06:52:32;;;;;;;14.70;4.85;;;24.30;47.90;;;;;;5046150;28;20021;-44
2022/05/10 06:54:58;;;;;;;10.65;4.13;;;24.20;47.60;;;;;;5055296;28;20034;-45
2022/05/10 06:57:24;;;;;;;10.25;3.65;;;24.20;47.50;;;;;;5066433;28;20471;-48
2022/05/10 06:59:52;;;;;;;12.27;4.13;;;24.20;47.50;;;;;;5065711;28;20060;-44
2022/05/10 07:02:17;;;;;;;10.77;4.25;;;24.20;47.40;;;;;;5065486;28;20539;-44
2022/05/10 07:04:43;;;;;;;8.63;3.85;;;24.20;47.30;;;;;;5065685;28;20074;-44
2022/05/10 07:07:09;;;;;;;6.90;3.33;;;24.20;47.30;;;;;;5065328;28;20083;-44
2022/05/10 07:09:34;;;;;;;9.13;3.22;;;24.20;47.20;;;;;;5065655;28;20094;-44
2022/05/10 07:12:00;;;;;;;8.30;3.53;;;24.20;47.20;;;;;;5065112;28;20035;-44
2022/05/10 07:14:26;;;;;;;7.60;3.38;;;24.30;47.20;;;;;;5065865;28;20104;-44
2022/05/10 07:16:52;;;;;;;11.45;3.78;;;24.20;47.10;;;;;;5065465;28;20033;-44
2022/05/10 07:19:17;;;;;;;6.82;3.28;;;24.20;47.10;;;;;;5060425;28;20175;-44
2022/05/10 07:21:43;;;;;;;7.00;3.30;;;24.20;47.10;;;;;;5065653;28;20028;-44
2022/05/10 07:24:09;;;;;;;6.72;3.10;;;24.20;47.00;;;;;;5065590;28;20516;-44
2022/05/10 07:26:35;;;;;;;8.90;3.22;;;24.20;47.00;;;;;;5065568;28;20042;-45
2022/05/10 07:29:00;;;;;;;6.82;3.00;;;24.20;47.00;;;;;;5065422;28;20040;-44
2022/05/10 07:31:26;;;;;;;10.40;3.30;;;24.20;46.90;;;;;;5065721;28;20551;-44
2022/05/10 07:33:52;;;;;;;6.80;2.83;;;24.30;47.00;;;;;;5057684;28;20061;-44
2022/05/10 07:36:24;;;;;;;6.18;3.10;;;24.30;47.00;;;;;;5045695;28;20036;-44
2022/05/10 07:38:50;;;;;;;6.45;3.33;;;24.30;47.00;;;;;;5045661;28;20031;-43
2022/05/10 07:41:21;;;;;;;6.30;2.50;;;24.30;46.90;;;;;;5045471;28;20100;-45
2022/05/10 07:43:48;;;;;;;5.10;2.90;;;24.30;46.90;;;;;;5045035;28;20033;-45
2022/05/10 07:46:13;;;;;;;5.82;2.67;;;24.30;46.90;;;;;;5044686;28;20029;-44
2022/05/10 07:48:39;;;;;;;4.03;2.38;;;24.30;46.90;;;;;;5049511;28;20679;-44
2022/05/10 07:51:05;;;;;;;7.18;2.53;;;24.30;46.90;;;;;;5054596;28;20549;-44
2022/05/10 07:53:32;;;;;;;4.82;2.42;;;24.30;46.80;;;;;;5045106;28;20044;-44
2022/05/10 07:55:59;;;;;;;6.07;2.95;;;24.30;46.90;;;;;;5057167;28;20040;-45
2022/05/10 07:58:25;;;;;;;7.75;3.15;;;24.30;46.80;;;;;;5065068;28;20032;-44
2022/05/10 08:00:51;;;;;;;5.82;2.40;;;24.30;46.80;;;;;;5064790;28;20161;-45
2022/05/10 08:03:20;;;;;;;5.63;2.90;;;24.20;46.70;;;;;;5063645;28;20040;-44
2022/05/10 08:05:47;;;;;;;6.13;2.83;;;24.30;46.80;;;;;;5045080;28;20036;-45
2022/05/10 08:08:13;;;;;;;4.10;2.25;;;24.30;46.80;;;;;;5045382;28;20385;-44
2022/05/10 08:10:41;;;;;;;6.28;2.92;;;24.30;46.80;;;;;;5044419;28;20056;-44
2022/05/10 08:13:12;;;;;;;6.15;2.53;;;24.30;46.70;;;;;;5045019;28;20470;-45
2022/05/10 08:15:38;;;;;;;4.78;2.42;;;24.30;46.70;;;;;;5044334;28;20086;-44
2022/05/10 08:18:06;;;;;;;9.15;2.67;;;24.30;46.70;;;;;;5044984;28;20021;-50
2022/05/10 08:20:32;;;;;;;3.85;2.13;;;24.30;46.60;;;;;;5057784;28;20751;-44
2022/05/10 08:22:58;;;;;;;5.95;2.50;;;24.30;46.70;;;;;;5044786;28;20064;-43
2022/05/10 08:25:23;;;;;;;4.78;2.30;;;24.30;46.70;;;;;;5044688;28;20017;-43
2022/05/10 08:27:49;;;;;;;5.40;2.30;;;24.30;46.70;;;;;;5044478;28;20040;-44
2022/05/10 08:30:15;;;;;;;5.00;2.22;;;24.30;46.60;;;;;;5043608;28;20032;-44
2022/05/10 08:32:42;;;;;;;4.68;2.13;;;24.30;46.60;;;;;;5044074;28;20024;-45
2022/05/10 08:35:09;;;;;;;4.53;2.00;;;24.30;46.60;;;;;;5060334;28;20060;-43
2022/05/10 08:37:37;;;;;;;4.90;2.65;;;24.30;46.60;;;;;;5064037;28;20028;-44
2022/05/10 08:40:05;;;;;;;4.40;2.25;;;24.30;46.60;;;;;;5061640;28;20020;-44
2022/05/10 08:42:34;;;;;;;5.47;2.30;;;24.30;46.50;;;;;;5044134;28;20052;-45
2022/05/10 08:45:04;;;;;;;4.25;2.40;;;24.30;46.50;;;;;;5043922;28;20105;-44
2022/05/10 08:47:30;;;;;;;4.68;2.15;;;24.30;46.50;;;;;;5044002;28;20052;-44
2022/05/10 08:50:01;;;;;;;5.13;2.53;;;24.30;46.50;;;;;;5058009;28;20139;-44
2022/05/10 08:52:34;;;;;;;4.68;2.25;;;24.30;46.50;;;;;;5063922;28;20550;-45
2022/05/10 08:55:00;;;;;;;4.63;2.20;;;24.30;46.80;;;;;;5061622;28;20081;-44
2022/05/10 08:57:48;;;;;;;3.13;1.88;;;24.30;46.50;;;;;;5060831;28;20044;-45
2022/05/10 09:00:19;;;;;;;4.57;2.08;;;24.30;46.50;;;;;;5064052;28;20038;-44
2022/05/10 09:02:51;;;;;;;5.03;2.60;;;24.30;46.50;;;;;;5062337;28;20667;-44
2022/05/10 09:05:41;;;;;;;4.35;2.10;;;24.30;46.50;;;;;;5060703;28;20051;-46
2022/05/10 09:08:26;;;;;;;4.53;1.75;;;24.30;46.50;;;;;;5064080;28;20029;-44
2022/05/10 09:10:57;;;;;;;6.13;2.42;;;24.30;46.50;;;;;;5063730;28;20028;-44
2022/05/10 09:13:24;;;;;;;3.95;2.00;;;24.30;46.40;;;;;;5063946;28;20032;-44
2022/05/10 09:16:06;;;;;;;4.07;1.80;;;24.30;46.40;;;;;;5063828;28;20147;-45
2022/05/10 09:18:53;;;;;;;5.30;2.40;;;24.30;46.50;;;;;;5063929;28;20063;-44
2022/05/10 09:21:23;;;;;;;3.83;2.00;;;24.30;46.40;;;;;;5062848;28;20290;-45
2022/05/10 09:24:04;;;;;;;4.20;1.90;;;24.30;46.40;;;;;;5063948;28;20075;-44
2022/05/10 09:26:42;;;;;;;3.22;1.63;;;24.30;46.50;;;;;;5064017;28;20432;-44
2022/05/10 09:29:26;;;;;;;4.13;2.08;;;24.30;46.40;;;;;;5063901;28;20071;-44
2022/05/10 09:34:49;;;;;;;4.28;2.17;;;24.30;46.40;;;;;;5063410;28;20028;-44
2022/05/10 09:37:31;;;;;;;4.38;2.42;;;24.30;46.40;;;;;;5062765;28;20032;-44
2022/05/10 09:39:57;;;;;;;3.60;1.95;;;24.30;46.40;;;;;;5063954;28;20028;-45
2022/05/10 09:42:29;;;;;;;3.03;1.55;;;24.30;46.40;;;;;;5063579;28;20036;-45
2022/05/10 09:44:59;;;;;;;3.88;2.00;;;24.30;46.40;;;;;;5063556;28;20028;-45
2022/05/10 09:47:26;;;;;;;2.88;1.60;;;24.30;46.40;;;;;;5063776;28;20610;-44
2022/05/10 09:49:51;;;;;;;4.57;2.20;;;24.30;46.40;;;;;;5051675;28;20040;-44
2022/05/10 09:52:24;;;;;;;3.50;1.92;;;24.30;46.40;;;;;;5064160;28;20036;-44
2022/05/10 09:54:53;;;;;;;4.65;2.00;;;24.30;46.30;;;;;;5067558;28;20036;-44
2022/05/10 09:57:29;;;;;;;4.35;2.10;;;24.30;46.30;;;;;;5062992;28;20039;-44
2022/05/10 09:59:55;;;;;;;3.83;1.90;;;24.30;46.30;;;;;;5067238;28;20042;-44
2022/05/10 10:02:34;;;;;;;3.80;1.95;;;24.30;46.30;;;;;;5067132;28;20825;-44
2022/05/10 10:05:22;;;;;;;3.47;1.85;;;24.30;46.30;;;;;;5066915;28;20032;-44
2022/05/10 10:07:58;;;;;;;3.80;1.77;;;24.30;46.30;;;;;;5067393;28;20024;-44
2022/05/10 10:10:35;;;;;;;4.53;2.13;;;24.30;46.30;;;;;;5066708;28;20060;-44
2022/05/10 10:13:30;;;;;;;3.97;1.58;;;24.30;46.30;;;;;;5067084;28;20017;-43
2022/05/10 10:15:56;;;;;;;4.03;1.98;;;24.30;46.40;;;;;;5066857;28;20016;-44
2022/05/10 10:18:48;;;;;;;3.42;1.80;;;24.30;46.40;;;;;;5066928;28;20103;-45
2022/05/10 10:22:10;;;;;;;2.92;1.45;;;24.30;46.40;;;;;;5046432;28;20119;-45
2022/05/10 10:24:56;;;;;;;4.53;1.90;;;24.30;46.40;;;;;;5043703;28;20094;-44
2022/05/10 10:27:49;;;;;;;3.28;1.35;;;24.30;46.50;;;;;;5043640;28;20033;-44
2022/05/10 10:30:21;;;;;;;3.43;1.67;;;24.30;46.40;;;;;;5046582;28;20048;-44
2022/05/10 10:32:53;;;;;;;3.45;1.70;;;24.30;46.40;;;;;;5046992;28;20106;-44
2022/05/10 10:35:30;;;;;;;5.40;1.70;;;24.30;46.40;;;;;;5062143;28;20103;-44
2022/05/10 10:38:05;;;;;;;3.20;1.63;;;24.30;46.40;;;;;;5066706;28;20028;-44
2022/05/10 10:40:43;;;;;;;4.47;1.92;;;24.30;46.40;;;;;;5066478;28;20716;-44
2022/05/10 10:43:17;;;;;;;3.25;1.65;;;24.30;46.50;;;;;;5066785;28;20032;-44
2022/05/10 10:45:46;;;;;;;3.35;1.88;;;24.30;46.50;;;;;;5066477;28;20025;-44
2022/05/10 10:48:36;;;;;;;4.15;2.08;;;24.40;47.20;;;;;;5066475;28;20057;-44
2022/05/10 10:51:01;;;;;;;4.03;1.90;;;24.40;46.50;;;;;;5045507;28;20043;-44
2022/05/10 10:53:28;;;;;;;3.35;1.50;;;24.40;46.50;;;;;;5064388;28;20033;-44
2022/05/10 10:56:13;;;;;;;3.58;1.80;;;24.30;46.50;;;;;;5062628;28;20122;-44
2022/05/10 10:58:58;;;;;;;4.18;1.85;;;24.30;46.40;;;;;;5061347;28;20025;-44
2022/05/10 11:01:56;;;;;;;3.75;1.90;;;24.40;46.50;;;;;;5065018;28;20021;-44
2022/05/10 11:04:36;;;;;;;3.70;1.83;;;24.40;46.60;;;;;;5062485;28;20050;-44
2022/05/10 11:07:18;;;;;;;4.28;2.08;;;24.30;46.60;;;;;;5065348;28;20038;-44
2022/05/10 11:09:58;;;;;;;3.22;1.60;;;24.40;46.50;;;;;;5066112;28;20060;-44
2022/05/10 11:12:27;;;;;;;3.03;1.38;;;24.40;46.40;;;;;;5066144;28;20144;-45
2022/05/10 11:15:26;;;;;;;3.50;1.70;;;24.40;46.30;;;;;;5065730;28;20396;-44
2022/05/10 11:18:34;;;;;;;3.13;1.33;;;24.40;46.20;;;;;;5065497;28;20036;-45
2022/05/10 11:21:32;;;;;;;3.15;1.55;;;24.40;46.30;;;;;;5044588;28;20068;-44
2022/05/10 11:24:27;;;;;;;3.03;1.52;;;24.40;46.40;;;;;;5044781;28;20136;-44
2022/05/10 11:27:14;;;;;;;4.07;1.58;;;24.40;46.40;;;;;;5043152;28;20041;-44
2022/05/10 11:29:46;;;;;;;3.10;1.67;;;24.40;46.40;;;;;;5045315;28;20036;-44
2022/05/10 11:32:45;;;;;;;2.70;1.40;;;24.40;46.50;;;;;;5045222;28;20056;-44
2022/05/10 11:35:23;;;;;;;3.83;1.63;;;24.40;46.60;;;;;;5045564;28;20036;-44
2022/05/10 11:37:58;;;;;;;2.85;1.48;;;24.40;46.40;;;;;;5045863;28;20039;-43
2022/05/10 11:40:32;;;;;;;2.85;1.45;;;24.50;46.40;;;;;;5045209;28;20112;-44
2022/05/10 11:43:12;;;;;;;2.83;1.50;;;24.50;46.30;;;;;;5045319;28;20035;-43
2022/05/10 11:45:57;;;;;;;2.60;1.25;;;24.50;46.30;;;;;;5045346;28;20024;-44
2022/05/10 11:48:45;;;;;;;3.05;1.70;;;24.50;46.30;;;;;;5045607;28;20074;-44
2022/05/10 11:51:39;;;;;;;2.90;1.48;;;24.50;46.70;;;;;;5044423;28;20037;-44
2022/05/10 11:54:42;;;;;;;3.38;1.85;;;24.50;46.50;;;;;;5045086;28;20036;-44
2022/05/10 11:57:14;;;;;;;3.65;1.63;;;24.50;46.50;;;;;;5044670;28;20060;-45
2022/05/10 11:59:41;;;;;;;2.72;1.42;;;24.60;46.50;;;;;;5059744;28;20021;-44
2022/05/10 12:02:30;;;;;;;3.47;1.77;;;24.50;46.40;;;;;;5061313;28;20644;-44
2022/05/10 12:05:21;;;;;;;2.72;1.50;;;24.60;46.50;;;;;;5051631;28;20036;-45
2022/05/10 12:07:48;;;;;;;2.15;1.02;;;24.60;46.60;;;;;;5053802;28;20884;-44
2022/05/10 12:10:35;;;;;;;3.08;1.60;;;24.60;46.60;;;;;;5053619;28;20690;-45
2022/05/10 12:13:07;;;;;;;2.38;1.48;;;24.70;46.70;;;;;;5057885;28;20021;-45
2022/05/10 12:21:28;;;;;;;2.35;1.10;;;24.70;46.80;;;;;;5061061;28;20258;-44
2022/05/10 12:24:28;;;;;;;2.90;1.40;;;24.70;46.80;;;;;;5049083;28;20033;-44
2022/05/10 12:27:12;;;;;;;2.85;1.20;;;24.80;46.80;;;;;;5049798;28;20024;-45
2022/05/10 12:29:38;;;;;;;2.25;1.00;;;24.80;46.70;;;;;;5063017;28;20039;-44
2022/05/10 12:32:38;;;;;;;2.65;1.27;;;24.80;46.80;;;;;;5044144;28;20029;-43
2022/05/10 12:35:39;;;;;;;2.78;1.30;;;24.80;46.70;;;;;;5055327;28;20051;-44
2022/05/10 12:38:06;;;;;;;2.35;1.27;;;24.90;46.80;;;;;;5064216;28;20503;-45
2022/05/10 12:40:35;;;;;;;3.35;1.23;;;24.90;46.70;;;;;;5063811;28;20032;-45
2022/05/10 12:43:38;;;;;;;2.65;1.20;;;24.90;46.80;;;;;;5052903;28;20025;-44
2022/05/10 12:46:13;;;;;;;2.70;1.40;;;24.90;46.80;;;;;;5043677;28;20017;-44
2022/05/10 12:49:13;;;;;;;3.92;1.40;;;25.00;46.70;;;;;;5050943;28;20036;-44
2022/05/10 12:51:43;;;;;;;1.90;1.00;;;25.00;46.60;;;;;;5043617;28;20035;-44
2022/05/10 12:54:12;;;;;;;2.70;1.30;;;25.00;46.60;;;;;;5041432;28;20028;-45
2022/05/10 12:57:08;;;;;;;2.60;1.08;;;25.00;46.60;;;;;;5058860;28;20769;-44
2022/05/10 12:59:55;;;;;;;3.03;1.30;;;25.10;46.50;;;;;;5060657;28;20037;-44
2022/05/10 13:02:22;;;;;;;3.22;1.10;;;25.10;46.50;;;;;;5061440;28;20031;-45
2022/05/10 13:04:53;;;;;;;2.95;1.25;;;25.10;46.40;;;;;;5063176;28;20119;-44
2022/05/10 13:08:14;;;;;;;12.32;2.20;;;25.10;46.40;;;;;;5035199;28;20491;-44
2022/05/10 13:10:39;;;;;;;19.80;2.72;;;25.10;45.50;;;;;;5053539;28;20031;-44
2022/05/10 13:13:08;;;;;;;14.32;2.38;;;25.20;43.80;;;;;;5057563;28;20024;-45
2022/05/10 13:15:41;;;;;;;22.08;3.10;;;25.20;42.80;;;;;;5053797;28;20111;-49
2022/05/10 13:18:12;;;;;;;13.05;3.17;;;25.20;43.30;;;;;;5050673;28;20028;-44
2022/05/10 13:20:45;;;;;;;13.73;2.88;;;25.20;42.50;;;;;;5052574;28;20036;-44
2022/05/10 13:23:11;;;;;;;13.23;2.65;;;25.20;43.10;;;;;;5061771;28;20039;-46
2022/05/10 13:25:40;;;;;;;8.23;2.53;;;25.20;42.60;;;;;;5043506;28;20021;-46
2022/05/10 13:28:18;;;;;;;13.20;2.92;;;25.20;42.20;;;;;;5056738;28;20074;-45
2022/05/10 13:30:53;;;;;;;12.55;3.22;;;25.30;43.20;;;;;;5047769;28;20090;-45
2022/05/10 13:33:37;;;;;;;9.75;2.80;;;25.30;43.90;;;;;;5054394;28;20029;-45
2022/05/10 13:36:08;;;;;;;11.98;2.70;;;25.30;45.50;;;;;;5060122;28;20032;-45
2022/05/10 13:38:41;;;;;;;7.32;1.73;;;25.30;45.70;;;;;;5058606;28;20047;-45